createdAt,value
2023-09-17T00:01:55.673Z,95.30
2023-09-17T00:04:24.298Z,95.40
2023-09-17T00:06:51.885Z,95.50
2023-09-17T00:09:18.983Z,95.50
2023-09-17T00:11:47.188Z,95.60
2023-09-17T00:14:14.489Z,95.70
2023-09-17T00:16:42.189Z,95.70
2023-09-17T00:19:09.611Z,95.80
2023-09-17T00:21:36.985Z,95.90
2023-09-17T00:24:04.323Z,96.30
2023-09-17T00:26:31.614Z,96.10
2023-09-17T00:28:58.744Z,96.20
2023-09-17T00:31:25.965Z,96.30
2023-09-17T00:33:53.048Z,96.30
2023-09-17T00:36:21.171Z,96.40
2023-09-17T00:38:48.179Z,96.50
2023-09-17T00:41:15.552Z,96.60
2023-09-17T00:43:43.513Z,96.70
2023-09-17T00:46:14.325Z,96.70
2023-09-17T00:48:43.440Z,96.80
2023-09-17T00:51:10.581Z,96.90
2023-09-17T00:53:38.421Z,96.90
2023-09-17T00:56:05.716Z,97.00
2023-09-17T00:58:34.742Z,97.10
2023-09-17T01:01:05.360Z,97.20
2023-09-17T01:03:33.255Z,97.20
2023-09-17T01:06:04.294Z,97.30
2023-09-17T01:08:32.360Z,97.40
2023-09-17T01:11:00.083Z,97.40
2023-09-17T01:13:27.752Z,97.40
2023-09-17T01:15:55.973Z,97.50
2023-09-17T01:18:23.594Z,97.50
2023-09-17T01:21:08.578Z,97.60
2023-09-17T01:24:04.170Z,98.10
2023-09-17T01:26:33.257Z,97.80
2023-09-17T01:29:00.532Z,97.70
2023-09-17T01:31:28.571Z,97.80
2023-09-17T01:33:55.859Z,97.90
2023-09-17T01:36:36.321Z,97.90
2023-09-17T01:39:14.053Z,98.10
2023-09-17T01:41:42.903Z,98.20
2023-09-17T01:44:11.377Z,98.10
2023-09-17T01:46:41.022Z,98.10
2023-09-17T01:49:13.340Z,98.20
2023-09-17T01:51:41.472Z,98.30
2023-09-17T01:54:09.214Z,98.30
2023-09-17T01:56:37.180Z,98.30
2023-09-17T01:59:08.133Z,98.30
2023-09-17T02:01:35.473Z,98.40
2023-09-17T02:04:02.840Z,98.40
2023-09-17T02:06:30.094Z,98.70
2023-09-17T02:08:57.227Z,98.50
2023-09-17T02:11:25.432Z,98.50
2023-09-17T02:13:53.246Z,98.50
2023-09-17T02:16:22.124Z,98.60
2023-09-17T02:18:49.894Z,98.70
2023-09-17T02:21:16.919Z,98.70
2023-09-17T02:23:45.383Z,98.70
2023-09-17T02:26:12.811Z,98.80
2023-09-17T02:28:40.391Z,98.90
2023-09-17T02:31:08.098Z,99.00
2023-09-17T02:33:35.176Z,99.10
2023-09-17T02:36:04.658Z,99.20
2023-09-17T02:38:31.923Z,99.20
2023-09-17T02:41:00.831Z,99.30
2023-09-17T02:43:31.013Z,99.30
2023-09-17T02:45:58.475Z,99.20
2023-09-17T02:48:25.741Z,99.30
2023-09-17T02:50:53.636Z,99.30
2023-09-17T02:53:21.716Z,99.40
2023-09-17T02:55:48.923Z,99.40
2023-09-17T02:58:16.306Z,99.40
2023-09-17T03:00:45.653Z,99.50
2023-09-17T03:03:13.519Z,99.50
2023-09-17T03:05:40.712Z,99.50
2023-09-17T03:08:10.397Z,99.60
2023-09-17T03:10:44.046Z,99.60
2023-09-17T03:13:13.840Z,99.60
2023-09-17T03:15:41.394Z,99.50
2023-09-17T03:18:08.490Z,99.50
2023-09-17T03:20:36.028Z,99.50
2023-09-17T03:23:05.485Z,99.50
2023-09-17T03:25:35.566Z,99.50
2023-09-17T03:28:03.720Z,99.50
2023-09-17T03:30:31.397Z,99.50
2023-09-17T03:33:05.413Z,99.60
2023-09-17T03:35:43.427Z,99.60
2023-09-17T03:38:10.792Z,99.60
2023-09-17T03:40:38.106Z,99.70
2023-09-17T03:43:09.709Z,99.70
2023-09-17T03:45:37.316Z,99.60
2023-09-17T03:48:05.788Z,99.70
2023-09-17T03:50:33.039Z,99.80
2023-09-17T03:53:03.549Z,99.70
2023-09-17T03:55:30.931Z,99.80
2023-09-17T03:57:58.597Z,99.70
2023-09-17T04:00:29.681Z,99.70
2023-09-17T04:02:57.126Z,99.70
2023-09-17T04:05:25.298Z,99.80
2023-09-17T04:07:52.532Z,99.80
2023-09-17T04:10:21.033Z,99.80
2023-09-17T04:12:48.487Z,99.80
2023-09-17T04:15:19.080Z,99.90
2023-09-17T04:17:54.718Z,99.90
2023-09-17T04:20:22.328Z,99.90
2023-09-17T04:22:51.701Z,99.90
2023-09-17T04:25:21.594Z,99.90
2023-09-17T04:27:52.784Z,99.90
2023-09-17T04:30:22.634Z,99.90
2023-09-17T04:32:52.270Z,99.90
2023-09-17T04:35:20.032Z,99.90
2023-09-17T04:37:50.703Z,99.90
2023-09-17T04:40:27.232Z,99.90
2023-09-17T04:42:56.378Z,99.90
2023-09-17T04:45:38.710Z,99.90
2023-09-17T04:48:12.468Z,99.90
2023-09-17T04:50:44.863Z,99.90
2023-09-17T04:53:15.498Z,99.90
2023-09-17T04:55:45.409Z,99.90
2023-09-17T04:58:14.843Z,99.90
2023-09-17T05:00:43.218Z,99.90
2023-09-17T05:03:11.801Z,99.90
2023-09-17T05:05:40.586Z,99.90
2023-09-17T05:08:08.920Z,99.90
2023-09-17T05:10:36.243Z,99.90
2023-09-17T05:13:03.319Z,99.90
2023-09-17T05:15:30.550Z,99.90
2023-09-17T05:17:59.215Z,99.90
2023-09-17T05:20:27.288Z,99.90
2023-09-17T05:22:56.050Z,99.90
2023-09-17T05:25:23.283Z,99.90
2023-09-17T05:27:51.155Z,99.90
2023-09-17T05:30:18.939Z,99.90
2023-09-17T05:32:46.511Z,99.90
2023-09-17T05:35:14.351Z,99.90
2023-09-17T05:37:41.915Z,99.90
2023-09-17T05:40:10.567Z,99.90
2023-09-17T05:42:38.860Z,99.90
2023-09-17T05:45:06.396Z,99.90
2023-09-17T05:47:33.791Z,99.90
2023-09-17T05:50:01.392Z,99.90
2023-09-17T05:52:34.431Z,99.90
2023-09-17T05:55:05.005Z,99.90
2023-09-17T05:57:35.267Z,99.90
2023-09-17T06:00:08.714Z,99.90
2023-09-17T06:02:42.559Z,99.90
2023-09-17T06:05:13.331Z,99.90
2023-09-17T06:07:41.134Z,99.90
2023-09-17T06:10:08.682Z,99.90
2023-09-17T06:12:35.934Z,99.90
2023-09-17T06:15:05.562Z,99.90
2023-09-17T06:17:33.275Z,99.90
2023-09-17T06:20:00.986Z,99.90
2023-09-17T06:22:28.235Z,99.90
2023-09-17T06:24:56.117Z,99.90
2023-09-17T06:27:23.535Z,99.90
2023-09-17T06:29:51.265Z,99.90
2023-09-17T06:32:19.758Z,99.90
2023-09-17T06:34:48.372Z,99.90
2023-09-17T06:37:15.775Z,99.90
2023-09-17T06:39:43.605Z,99.90
2023-09-17T06:42:12.314Z,99.90
2023-09-17T06:44:39.792Z,99.90
2023-09-17T06:47:06.973Z,99.90
2023-09-17T06:49:35.326Z,99.90
2023-09-17T06:52:02.341Z,99.80
2023-09-17T06:54:29.480Z,99.50
2023-09-17T06:56:56.889Z,99.30
2023-09-17T06:59:24.640Z,99.00
2023-09-17T07:01:52.022Z,98.80
2023-09-17T07:04:19.296Z,98.60
2023-09-17T07:06:46.558Z,98.30
2023-09-17T07:09:14.264Z,98.10
2023-09-17T07:11:41.614Z,97.70
2023-09-17T07:14:11.232Z,97.50
2023-09-17T07:16:40.085Z,96.90
2023-09-17T07:19:07.274Z,96.60
2023-09-17T07:21:34.559Z,96.00
2023-09-17T07:24:01.713Z,95.60
2023-09-17T07:26:29.916Z,95.10
2023-09-17T07:28:57.575Z,94.10
2023-09-17T07:31:24.959Z,93.70
2023-09-17T07:33:52.448Z,93.40
2023-09-17T07:36:19.829Z,93.10
2023-09-17T07:38:47.140Z,92.60
2023-09-17T07:41:14.232Z,92.00
2023-09-17T07:43:41.437Z,91.50
2023-09-17T07:46:12.972Z,90.50
2023-09-17T07:48:41.140Z,89.80
2023-09-17T07:51:08.358Z,86.30
2023-09-17T07:53:35.775Z,84.60
2023-09-17T07:56:02.980Z,82.80
2023-09-17T07:58:30.148Z,81.00
2023-09-17T08:00:57.536Z,79.70
2023-09-17T08:03:24.724Z,78.10
2023-09-17T08:05:52.211Z,76.20
2023-09-17T08:08:19.263Z,74.10
2023-09-17T08:10:47.991Z,71.70
2023-09-17T08:13:15.654Z,69.60
2023-09-17T08:15:43.304Z,68.10
2023-09-17T08:18:10.593Z,66.50
2023-09-17T08:20:38.072Z,64.40
2023-09-17T08:23:05.479Z,62.10
2023-09-17T08:25:34.825Z,60.90
2023-09-17T08:28:02.516Z,59.70
2023-09-17T08:30:32.801Z,58.30
2023-09-17T08:33:02.277Z,56.20
2023-09-17T08:35:29.300Z,56.20
2023-09-17T08:37:57.196Z,55.30
2023-09-17T08:40:30.656Z,54.10
2023-09-17T08:43:00.618Z,52.60
2023-09-17T08:45:30.018Z,53.20
2023-09-17T08:47:57.956Z,51.10
2023-09-17T08:50:30.412Z,49.90
2023-09-17T08:53:02.714Z,47.80
2023-09-17T08:55:32.403Z,45.70
2023-09-17T08:58:23.423Z,44.80
2023-09-17T09:00:53.650Z,43.60
2023-09-17T09:03:26.759Z,43.30
2023-09-17T09:05:56.557Z,41.70
2023-09-17T09:08:26.280Z,41.20
2023-09-17T09:10:53.729Z,40.30
2023-09-17T09:13:23.012Z,39.90
2023-09-17T09:15:50.741Z,37.90
2023-09-17T09:18:18.268Z,37.30
2023-09-17T09:20:45.288Z,37.30
2023-09-17T09:23:13.341Z,36.60
2023-09-17T09:25:41.508Z,35.90
2023-09-17T09:28:08.588Z,35.20
2023-09-17T09:30:37.765Z,34.40
2023-09-17T09:33:05.376Z,33.50
2023-09-17T09:35:32.593Z,32.90
2023-09-17T09:38:02.648Z,32.80
2023-09-17T09:40:30.212Z,31.80
2023-09-17T09:42:58.982Z,31.60
2023-09-17T09:45:26.385Z,31.00
2023-09-17T09:47:54.856Z,30.40
2023-09-17T09:50:31.521Z,29.80
2023-09-17T09:52:58.794Z,28.70
2023-09-17T09:55:29.522Z,28.90
2023-09-17T09:57:57.148Z,27.80
2023-09-17T10:00:30.551Z,27.80
2023-09-17T10:02:58.180Z,27.30
2023-09-17T10:05:38.199Z,27.60
2023-09-17T10:08:05.823Z,26.80
2023-09-17T10:10:33.486Z,26.70
2023-09-17T10:13:07.721Z,26.00
2023-09-17T10:15:37.748Z,25.80
2023-09-17T10:18:08.508Z,25.50
2023-09-17T10:20:36.142Z,25.70
2023-09-17T10:23:05.913Z,26.00
2023-09-17T10:25:35.351Z,25.70
2023-09-17T10:28:04.280Z,25.30
2023-09-17T10:30:32.545Z,24.90
2023-09-17T10:33:01.295Z,24.60
2023-09-17T10:35:31.172Z,24.10
2023-09-17T10:38:04.979Z,24.50
2023-09-17T10:40:33.120Z,23.90
2023-09-17T10:43:02.995Z,24.00
2023-09-17T10:45:35.767Z,23.90
2023-09-17T10:48:03.872Z,23.60
2023-09-17T10:50:37.798Z,23.40
2023-09-17T10:53:11.674Z,23.30
2023-09-17T10:55:47.380Z,23.30
2023-09-17T10:58:21.405Z,22.60
2023-09-17T11:00:50.032Z,22.40
2023-09-17T11:03:23.922Z,22.00
2023-09-17T11:05:54.139Z,21.60
2023-09-17T11:08:21.938Z,21.70
2023-09-17T11:10:52.240Z,21.70
2023-09-17T11:13:21.407Z,21.30
2023-09-17T11:15:50.266Z,21.20
2023-09-17T11:18:18.623Z,21.30
2023-09-17T11:21:09.613Z,21.30
2023-09-17T11:23:47.068Z,21.40
2023-09-17T11:26:19.970Z,21.50
2023-09-17T11:29:06.586Z,21.80
2023-09-17T11:32:01.344Z,21.60
2023-09-17T11:34:28.420Z,21.50
2023-09-17T11:36:59.037Z,21.60
2023-09-17T11:39:26.785Z,21.50
2023-09-17T11:42:09.423Z,21.10
2023-09-17T11:44:38.487Z,20.80
2023-09-17T11:47:08.564Z,20.60
2023-09-17T11:49:36.418Z,20.30
2023-09-17T11:52:11.351Z,20.10
2023-09-17T11:54:52.333Z,19.70
2023-09-17T11:57:27.571Z,20.00
2023-09-17T11:59:56.644Z,19.80
2023-09-17T12:02:24.626Z,19.70
2023-09-17T12:04:53.337Z,19.80
2023-09-17T12:07:21.823Z,19.80
2023-09-17T12:09:59.364Z,19.80
2023-09-17T12:12:26.494Z,19.70
2023-09-17T12:14:53.529Z,20.10
2023-09-17T12:17:21.373Z,20.60
2023-09-17T12:20:11.745Z,20.40
2023-09-17T12:23:56.208Z,20.20
2023-09-17T12:27:24.067Z,20.40
2023-09-17T12:29:57.430Z,20.80
2023-09-17T12:32:27.906Z,21.20
2023-09-17T12:34:56.421Z,21.20
2023-09-17T12:37:24.350Z,21.10
2023-09-17T12:39:51.599Z,21.30
2023-09-17T12:42:18.820Z,21.20
2023-09-17T12:44:46.168Z,21.20
2023-09-17T12:47:14.482Z,21.20
2023-09-17T12:49:43.305Z,21.30
2023-09-17T12:52:12.603Z,21.20
2023-09-17T12:54:40.806Z,21.60
2023-09-17T12:57:08.337Z,21.70
2023-09-17T12:59:40.460Z,21.70
2023-09-17T13:02:08.827Z,21.50
2023-09-17T13:04:45.536Z,21.40
2023-09-17T13:07:24.919Z,21.10
2023-09-17T13:09:57.757Z,20.90
2023-09-17T13:12:28.481Z,20.90
2023-09-17T13:14:59.632Z,20.80
2023-09-17T13:17:30.526Z,20.90
2023-09-17T13:19:58.689Z,20.80
2023-09-17T13:22:27.355Z,20.70
2023-09-17T13:24:55.136Z,20.80
2023-09-17T13:27:22.830Z,21.00
2023-09-17T13:29:55.200Z,21.90
2023-09-17T13:32:22.767Z,21.90
2023-09-17T13:34:50.909Z,22.30
2023-09-17T13:37:19.255Z,22.50
2023-09-17T13:39:52.985Z,22.60
2023-09-17T13:42:20.851Z,22.90
2023-09-17T13:44:47.906Z,23.20
2023-09-17T13:47:15.183Z,23.20
2023-09-17T13:49:42.817Z,23.40
2023-09-17T13:52:10.878Z,23.50
2023-09-17T13:54:39.702Z,23.70
2023-09-17T13:57:06.805Z,24.00
2023-09-17T13:59:33.811Z,24.30
2023-09-17T14:02:01.330Z,24.50
2023-09-17T14:04:28.379Z,24.60
2023-09-17T14:06:56.599Z,25.00
2023-09-17T14:09:24.012Z,25.20
2023-09-17T14:11:51.866Z,25.40
2023-09-17T14:14:19.497Z,25.60
2023-09-17T14:16:47.268Z,26.00
2023-09-17T14:19:19.121Z,26.20
2023-09-17T14:21:47.857Z,26.00
2023-09-17T14:24:15.274Z,26.40
2023-09-17T14:26:42.371Z,26.20
2023-09-17T14:29:09.684Z,26.10
2023-09-17T14:31:39.415Z,26.30
2023-09-17T14:34:08.868Z,26.80
2023-09-17T14:36:36.145Z,26.80
2023-09-17T14:39:03.214Z,26.50
2023-09-17T14:41:31.077Z,26.00
2023-09-17T14:43:58.145Z,26.10
2023-09-17T14:46:25.302Z,26.00
2023-09-17T14:48:53.634Z,25.80
2023-09-17T14:51:21.223Z,25.20
2023-09-17T14:53:48.272Z,24.80
2023-09-17T14:56:15.224Z,24.70
2023-09-17T14:58:42.523Z,24.80
2023-09-17T15:01:11.912Z,24.40
2023-09-17T15:03:46.187Z,24.30
2023-09-17T15:06:13.567Z,24.40
2023-09-17T15:08:41.435Z,24.60
2023-09-17T15:11:09.499Z,24.20
2023-09-17T15:13:36.929Z,24.00
2023-09-17T15:16:04.559Z,23.80
2023-09-17T15:18:31.583Z,23.80
2023-09-17T15:20:58.634Z,23.80
2023-09-17T15:23:25.646Z,23.90
2023-09-17T15:25:52.642Z,23.90
2023-09-17T15:28:19.873Z,24.00
2023-09-17T15:30:50.365Z,24.20
2023-09-17T15:33:17.532Z,24.30
2023-09-17T15:35:44.926Z,24.20
2023-09-17T15:38:12.467Z,24.30
2023-09-17T15:40:42.831Z,24.40
2023-09-17T15:43:10.021Z,25.10
2023-09-17T15:45:37.083Z,24.80
2023-09-17T15:48:04.582Z,24.50
2023-09-17T15:50:31.623Z,24.50
2023-09-17T15:52:58.682Z,24.60
2023-09-17T15:55:25.705Z,24.80
2023-09-17T15:57:52.965Z,24.70
2023-09-17T16:00:20.227Z,25.00
2023-09-17T16:02:47.563Z,25.10
2023-09-17T16:05:15.129Z,25.20
2023-09-17T16:07:45.460Z,25.40
2023-09-17T16:10:15.058Z,25.60
2023-09-17T16:12:43.055Z,25.80
2023-09-17T16:15:10.808Z,26.10
2023-09-17T16:17:38.961Z,26.20
2023-09-17T16:20:07.325Z,26.40
2023-09-17T16:22:35.801Z,26.60
2023-09-17T16:25:05.516Z,27.00
2023-09-17T16:27:32.723Z,27.30
2023-09-17T16:30:00.115Z,27.70
2023-09-17T16:32:29.387Z,28.10
2023-09-17T16:34:56.951Z,28.50
2023-09-17T16:37:24.394Z,29.00
2023-09-17T16:39:51.832Z,29.40
2023-09-17T16:42:19.188Z,29.90
2023-09-17T16:44:46.315Z,30.40
2023-09-17T16:47:16.866Z,30.90
2023-09-17T16:49:46.721Z,31.80
2023-09-17T16:52:14.016Z,32.10
2023-09-17T16:54:43.025Z,32.70
2023-09-17T16:57:13.428Z,33.40
2023-09-17T16:59:40.551Z,34.00
2023-09-17T17:02:08.739Z,34.60
2023-09-17T17:04:36.545Z,35.40
2023-09-17T17:07:04.220Z,35.80
2023-09-17T17:09:32.408Z,36.40
2023-09-17T17:11:59.688Z,37.10
2023-09-17T17:14:27.090Z,37.60
2023-09-17T17:16:54.195Z,37.90
2023-09-17T17:19:21.615Z,38.30
2023-09-17T17:21:49.037Z,38.80
2023-09-17T17:24:19.092Z,39.40
2023-09-17T17:26:46.578Z,39.90
2023-09-17T17:29:13.666Z,40.20
2023-09-17T17:31:40.884Z,40.80
2023-09-17T17:34:08.571Z,41.30
2023-09-17T17:36:35.797Z,41.90
2023-09-17T17:39:04.516Z,42.40
2023-09-17T17:41:32.028Z,42.80
2023-09-17T17:44:01.739Z,43.20
2023-09-17T17:46:29.419Z,43.70
2023-09-17T17:48:56.807Z,44.30
2023-09-17T17:51:23.975Z,44.60
2023-09-17T17:53:51.406Z,45.10
2023-09-17T17:56:24.807Z,45.40
2023-09-17T17:58:53.142Z,45.80
2023-09-17T18:01:21.920Z,46.20
2023-09-17T18:03:49.226Z,46.50
2023-09-17T18:06:17.508Z,47.00
2023-09-17T18:08:45.392Z,47.30
2023-09-17T18:11:13.227Z,47.70
2023-09-17T18:13:40.392Z,48.00
2023-09-17T18:16:07.683Z,48.40
2023-09-17T18:18:34.869Z,48.70
2023-09-17T18:21:01.889Z,49.10
2023-09-17T18:23:28.993Z,49.30
2023-09-17T18:25:58.292Z,49.70
2023-09-17T18:28:27.406Z,50.00
2023-09-17T18:30:59.240Z,50.30
2023-09-17T18:33:26.657Z,50.70
2023-09-17T18:35:57.848Z,51.00
2023-09-17T18:38:25.654Z,51.40
2023-09-17T18:40:54.146Z,51.70
2023-09-17T18:43:25.244Z,51.80
2023-09-17T18:45:55.405Z,52.10
2023-09-17T18:48:22.835Z,52.40
2023-09-17T18:50:50.123Z,52.70
2023-09-17T18:53:17.744Z,53.00
2023-09-17T18:55:45.216Z,53.30
2023-09-17T18:58:12.375Z,53.50
2023-09-17T19:00:39.530Z,53.80
2023-09-17T19:03:06.950Z,54.20
2023-09-17T19:05:36.862Z,54.40
2023-09-17T19:08:05.346Z,54.70
2023-09-17T19:10:32.516Z,54.90
2023-09-17T19:12:59.711Z,55.20
2023-09-17T19:15:27.218Z,55.50
2023-09-17T19:17:54.620Z,55.70
2023-09-17T19:20:21.911Z,56.00
2023-09-17T19:22:49.328Z,56.40
2023-09-17T19:25:16.926Z,56.60
2023-09-17T19:27:48.266Z,56.90
2023-09-17T19:30:16.857Z,57.20
2023-09-17T19:32:44.413Z,57.30
2023-09-17T19:35:11.816Z,57.70
2023-09-17T19:37:39.369Z,58.00
2023-09-17T19:40:08.131Z,58.40
2023-09-17T19:42:38.064Z,58.80
2023-09-17T19:45:05.707Z,59.20
2023-09-17T19:47:33.052Z,59.30
2023-09-17T19:50:00.534Z,59.70
2023-09-17T19:52:27.723Z,60.00
2023-09-17T19:54:54.899Z,60.50
2023-09-17T19:57:24.866Z,60.90
2023-09-17T19:59:53.445Z,61.30
2023-09-17T20:02:21.249Z,61.70
2023-09-17T20:04:48.595Z,62.30
2023-09-17T20:07:15.682Z,62.90
2023-09-17T20:09:43.613Z,63.30
2023-09-17T20:12:11.323Z,63.70
2023-09-17T20:14:38.404Z,64.30
2023-09-17T20:17:05.902Z,64.80
2023-09-17T20:19:36.507Z,65.40
2023-09-17T20:22:04.917Z,66.00
2023-09-17T20:24:32.822Z,66.20
2023-09-17T20:27:00.256Z,66.60
2023-09-17T20:29:34.854Z,67.00
2023-09-17T20:32:32.427Z,67.30
2023-09-17T20:35:02.463Z,67.90
2023-09-17T20:37:37.178Z,68.20
2023-09-17T20:40:05.555Z,68.60
2023-09-17T20:42:33.581Z,69.10
2023-09-17T20:45:01.295Z,69.50
2023-09-17T20:47:29.788Z,70.00
2023-09-17T20:49:58.620Z,70.50
2023-09-17T20:52:26.156Z,71.10
2023-09-17T20:54:53.355Z,71.50
2023-09-17T20:57:21.445Z,71.90
2023-09-17T20:59:48.686Z,72.40
2023-09-17T21:02:15.956Z,72.90
2023-09-17T21:04:46.358Z,73.40
2023-09-17T21:07:13.607Z,74.10
2023-09-17T21:09:40.755Z,74.40
2023-09-17T21:12:09.611Z,74.70
2023-09-17T21:14:38.358Z,75.40
2023-09-17T21:17:05.431Z,75.70
2023-09-17T21:19:32.622Z,76.20
2023-09-17T21:21:59.794Z,76.70
2023-09-17T21:24:36.886Z,77.10
2023-09-17T21:27:04.926Z,77.90
2023-09-17T21:29:32.148Z,78.70
2023-09-17T21:32:06.300Z,78.30
2023-09-17T21:34:33.601Z,79.00
2023-09-17T21:37:10.925Z,79.30
2023-09-17T21:39:39.108Z,79.80
2023-09-17T21:42:06.341Z,80.10
2023-09-17T21:44:34.986Z,80.50
2023-09-17T21:47:02.463Z,80.80
2023-09-17T21:49:29.911Z,81.30
2023-09-17T21:51:57.286Z,81.70
2023-09-17T21:54:24.845Z,82.10
2023-09-17T21:56:52.214Z,82.50
2023-09-17T21:59:19.768Z,82.90
2023-09-17T22:01:46.962Z,83.30
2023-09-17T22:04:14.289Z,83.70
2023-09-17T22:06:42.018Z,83.90
2023-09-17T22:09:09.519Z,84.40
2023-09-17T22:11:45.603Z,84.70
2023-09-17T22:14:24.798Z,85.30
2023-09-17T22:16:52.427Z,85.80
2023-09-17T22:19:20.318Z,85.70
2023-09-17T22:21:48.118Z,86.00
2023-09-17T22:24:15.041Z,86.50
2023-09-17T22:26:42.469Z,86.60
2023-09-17T22:29:09.792Z,86.90
2023-09-17T22:31:37.114Z,87.20
2023-09-17T22:34:04.316Z,87.70
2023-09-17T22:36:32.008Z,87.80
2023-09-17T22:38:59.096Z,88.00
2023-09-17T22:41:26.999Z,88.30
2023-09-17T22:43:57.674Z,88.60
2023-09-17T22:46:31.833Z,88.90
2023-09-17T22:48:59.402Z,89.20
2023-09-17T22:51:31.575Z,89.40
2023-09-17T22:53:59.122Z,89.80
2023-09-17T22:56:26.721Z,90.00
2023-09-17T22:58:54.185Z,90.10
2023-09-17T23:01:21.861Z,90.20
2023-09-17T23:03:49.176Z,90.30
2023-09-17T23:06:16.814Z,90.50
2023-09-17T23:08:45.087Z,90.60
2023-09-17T23:11:12.426Z,90.70
2023-09-17T23:13:42.665Z,90.80
2023-09-17T23:16:09.899Z,91.00
2023-09-17T23:18:36.850Z,91.10
2023-09-17T23:21:05.050Z,91.20
2023-09-17T23:23:32.755Z,91.30
2023-09-17T23:26:02.375Z,91.30
2023-09-17T23:28:34.580Z,91.50
2023-09-17T23:31:04.974Z,91.50
2023-09-17T23:33:35.842Z,91.60
2023-09-17T23:36:06.290Z,91.70
2023-09-17T23:38:33.503Z,91.90
2023-09-17T23:41:00.575Z,91.90
2023-09-17T23:43:28.500Z,92.10
2023-09-17T23:45:55.568Z,92.00
2023-09-17T23:48:22.771Z,92.10
2023-09-17T23:50:56.267Z,92.30
2023-09-17T23:53:25.035Z,92.30
2023-09-17T23:55:52.755Z,92.30
2023-09-17T23:58:20.371Z,92.40
